Time;durP1;ratioP1;P1;durP2;ratioP2;P2;SDS_P1;SDS_P2;PMS_P1;PMS_P2;Temp;Humidity;BMP_temperature;BMP_pressure;BME280_temperature;BME280_humidity;BME280_pressure;Samples;Min_cycle;Max_cycle;Signal;HPM_P1;HPM_P2
2023/07/14 00:00:34;;;;;;;12.75;11.48;;;;;;;17.28;91.71;101644.16;5109728;28;20109;-84
2023/07/14 00:03:03;;;;;;;11.80;10.80;;;;;;;17.40;91.48;101635.97;5095161;28;20058;-84
2023/07/14 00:05:38;;;;;;;12.85;10.73;;;;;;;17.32;90.91;101627.66;5092007;28;20051;-84
2023/07/14 00:08:07;;;;;;;12.70;10.63;;;;;;;17.23;91.05;101623.00;5094028;28;20016;-84
2023/07/14 00:10:34;;;;;;;;;;;;;;;17.56;89.06;101640.13;5076530;28;20020;-84
2023/07/14 00:13:09;;;;;;;13.85;10.45;;;;;;;17.30;90.94;101628.78;5076875;28;19908;-84
2023/07/14 00:15:37;;;;;;;14.00;12.23;;;;;;;17.24;92.60;101625.59;5094148;28;20027;-84
2023/07/14 00:18:24;;;;;;;12.95;10.63;;;;;;;17.28;91.22;101628.03;5094877;28;20479;-84
2023/07/14 00:20:50;;;;;;;10.45;9.50;;;;;;;17.23;90.90;101626.56;5076860;28;20110;-84
2023/07/14 00:23:15;;;;;;;11.15;9.95;;;;;;;16.92;92.59;101598.53;5076184;28;20483;-83
2023/07/14 00:25:42;;;;;;;11.93;9.63;;;;;;;17.12;91.64;101617.63;5094815;28;20064;-84
2023/07/14 00:28:19;;;;;;;12.40;10.73;;;;;;;17.20;92.36;101631.31;5076307;28;20034;-84
2023/07/14 00:30:45;;;;;;;15.75;11.52;;;;;;;17.08;91.08;101629.59;5076196;28;20040;-84
2023/07/14 00:33:18;;;;;;;12.60;11.38;;;;;;;17.10;91.62;101628.50;5082338;28;20027;-84
2023/07/14 00:35:49;;;;;;;12.63;11.45;;;;;;;17.16;92.13;101609.19;5094699;28;20027;-84
2023/07/14 00:38:14;;;;;;;12.32;11.13;;;;;;;16.98;92.45;101618.72;5092648;28;20039;-84
2023/07/14 00:40:48;;;;;;;14.63;11.70;;;;;;;16.98;91.88;101610.66;5075964;28;20107;-84
2023/07/14 00:43:19;;;;;;;12.88;11.68;;;;;;;17.01;92.25;101624.69;5092935;28;20071;-84
2023/07/14 00:45:48;;;;;;;13.77;10.95;;;;;;;16.98;93.06;101616.03;5076004;28;20044;-84
2023/07/14 00:48:21;;;;;;;12.03;10.63;;;;;;;17.05;93.75;101614.56;5076222;28;20031;-83
2023/07/14 00:50:54;;;;;;;14.93;11.95;;;;;;;16.99;94.69;101617.72;5076766;28;20051;-84
2023/07/14 00:53:36;;;;;;;12.65;11.27;;;;;;;17.02;93.19;101610.28;5075400;28;20040;-84
2023/07/14 00:56:29;;;;;;;12.70;11.43;;;;;;;17.01;92.44;101613.09;5075845;28;20132;-84
2023/07/14 00:58:55;;;;;;;14.60;12.48;;;;;;;16.88;92.07;101597.06;5093638;28;20103;-84
2023/07/14 01:01:22;;;;;;;13.35;11.98;;;;;;;16.86;92.88;101604.41;5081210;28;20550;-84
2023/07/14 01:03:50;;;;;;;12.63;11.30;;;;;;;16.88;94.13;101604.28;5089740;28;20027;-84
2023/07/14 01:06:27;;;;;;;14.52;11.15;;;;;;;16.92;93.17;101614.69;5075282;28;20019;-84
2023/07/14 01:08:58;;;;;;;12.32;11.23;;;;;;;16.82;93.55;101616.34;5087069;28;20062;-83
2023/07/14 01:11:31;;;;;;;14.32;12.75;;;;;;;16.91;93.07;101617.47;5109209;28;20039;-84
2023/07/14 01:14:00;;;;;;;12.65;11.38;;;;;;;16.88;93.54;101590.84;5075145;28;20055;-84
2023/07/14 01:16:28;;;;;;;13.23;11.88;;;;;;;16.99;92.82;101601.59;5085954;28;20032;-84
2023/07/14 01:18:53;;;;;;;12.93;11.73;;;;;;;16.91;93.44;101596.84;5075002;28;20028;-84
2023/07/14 01:21:21;;;;;;;13.88;12.25;;;;;;;16.95;93.36;101600.16;5092921;28;20055;-84
2023/07/14 01:24:06;;;;;;;14.18;12.20;;;;;;;16.90;93.80;101591.56;5094223;28;20102;-83
2023/07/14 01:26:49;;;;;;;13.98;12.48;;;;;;;16.91;93.05;101594.16;5092476;28;20081;-84
2023/07/14 01:29:16;;;;;;;13.65;12.25;;;;;;;16.93;93.63;101586.81;5068946;28;20522;-84
2023/07/14 01:31:42;;;;;;;13.80;12.40;;;;;;;16.87;93.51;101589.97;5110831;27;20474;-84
2023/07/14 01:34:10;;;;;;;12.85;11.52;;;;;;;16.82;94.73;101583.25;5091171;28;20027;-84
2023/07/14 01:36:35;;;;;;;14.13;12.57;;;;;;;16.93;93.84;101605.63;5073646;28;20066;-84
2023/07/14 01:39:01;;;;;;;13.25;12.05;;;;;;;16.76;93.40;101571.16;5107683;28;20114;-84
2023/07/14 01:41:26;;;;;;;15.85;12.68;;;;;;;16.76;94.30;101572.00;5091868;28;20028;-84
2023/07/14 01:43:53;;;;;;;14.13;12.70;;;;;;;16.75;95.63;101578.31;5092260;28;20113;-84
2023/07/14 01:46:21;;;;;;;13.95;12.70;;;;;;;16.77;94.44;101580.94;5063670;28;20031;-84
2023/07/14 01:48:58;;;;;;;14.13;12.73;;;;;;;16.95;93.82;101575.97;5102552;28;20038;-84
2023/07/14 01:51:26;;;;;;;14.35;12.85;;;;;;;16.73;94.53;101591.00;5091154;28;20024;-84
2023/07/14 01:54:16;;;;;;;14.50;12.20;;;;;;;16.77;94.35;101586.31;5072227;28;20024;-84
2023/07/14 01:56:42;;;;;;;13.77;11.77;;;;;;;16.78;93.21;101579.97;5072293;28;20070;-84
2023/07/14 01:59:18;;;;;;;14.70;12.95;;;;;;;16.70;93.83;101577.81;5067139;28;20097;-84
2023/07/14 02:01:47;;;;;;;15.82;12.55;;;;;;;16.76;93.85;101581.91;5085264;28;20480;-83
2023/07/14 02:04:24;;;;;;;14.35;13.00;;;;;;;16.74;93.24;101575.78;5073283;28;20140;-84
2023/07/14 02:06:49;;;;;;;14.38;12.98;;;;;;;16.65;93.09;101571.97;5074591;28;20401;-84
2023/07/14 02:09:18;;;;;;;14.65;13.18;;;;;;;16.71;93.71;101576.88;5092153;28;20038;-83
2023/07/14 02:11:51;;;;;;;21.80;13.55;;;;;;;16.64;94.33;101577.44;5092269;28;20089;-84
2023/07/14 02:14:20;;;;;;;14.35;12.90;;;;;;;16.51;93.39;101581.06;5069499;28;20052;-84
2023/07/14 02:16:50;;;;;;;14.68;13.15;;;;;;;16.47;94.19;101573.34;5097301;28;20489;-84
2023/07/14 02:19:22;;;;;;;14.43;13.02;;;;;;;16.62;94.72;101571.31;5075897;28;20028;-84
2023/07/14 02:21:48;;;;;;;15.70;12.98;;;;;;;16.49;94.18;101561.53;5075608;28;20475;-84
2023/07/14 02:24:27;;;;;;;14.82;13.30;;;;;;;16.54;94.75;101555.81;5075929;28;20040;-84
2023/07/14 02:27:00;;;;;;;14.48;13.07;;;;;;;16.38;95.05;101558.81;5076078;28;20028;-84
2023/07/14 02:29:26;;;;;;;15.00;13.45;;;;;;;16.51;93.93;101569.47;5071896;28;20029;-84
2023/07/14 02:31:51;;;;;;;14.02;12.70;;;;;;;16.50;93.92;101573.13;5102620;28;20089;-83
2023/07/14 02:34:20;;;;;;;14.00;12.05;;;;;;;16.34;93.15;101546.59;5077901;28;20020;-84
2023/07/14 02:37:01;;;;;;;13.57;12.23;;;;;;;16.45;93.00;101560.06;5094534;28;20036;-84
2023/07/14 02:39:32;;;;;;;13.73;12.43;;;;;;;16.44;93.39;101561.03;5069867;28;20077;-83
2023/07/14 02:42:00;;;;;;;14.50;13.00;;;;;;;16.32;93.14;101565.53;5111396;28;20024;-83
2023/07/14 02:44:30;;;;;;;14.15;12.65;;;;;;;16.29;93.46;101560.34;5095325;28;20063;-84
2023/07/14 02:47:05;;;;;;;14.60;13.10;;;;;;;16.31;92.88;101571.00;5094942;28;20475;-83
2023/07/14 02:49:32;;;;;;;13.68;12.48;;;;;;;16.16;93.94;101558.72;5078083;28;20028;-83
2023/07/14 02:51:57;;;;;;;12.93;11.73;;;;;;;16.20;94.44;101565.56;5074035;28;20167;-84
2023/07/14 02:54:25;;;;;;;14.13;13.02;;;;;;;16.15;94.40;101551.63;5087161;28;20044;-84
2023/07/14 02:56:52;;;;;;;13.30;12.10;;;;;;;16.20;94.38;101565.56;5078163;28;20054;-84
2023/07/14 02:59:22;;;;;;;14.48;13.02;;;;;;;16.20;94.78;101553.00;5095168;28;20157;-84
2023/07/14 03:01:48;;;;;;;14.77;13.25;;;;;;;16.12;94.07;101553.59;5091702;28;20031;-83
2023/07/14 03:04:18;;;;;;;14.40;13.15;;;;;;;16.21;94.23;101561.94;5074570;28;20028;-83
2023/07/14 03:06:44;;;;;;;13.65;12.25;;;;;;;16.14;95.05;101564.19;5078631;28;20020;-84
2023/07/14 03:09:12;;;;;;;14.00;12.88;;;;;;;16.26;94.11;101570.47;5076014;28;20031;-84
2023/07/14 03:11:39;;;;;;;13.57;12.15;;;;;;;16.20;94.28;101570.94;5111613;28;20433;-84
2023/07/14 03:14:06;;;;;;;13.43;12.27;;;;;;;16.06;94.49;101564.78;5077835;28;20028;-83
2023/07/14 03:16:31;;;;;;;13.70;12.40;;;;;;;16.18;94.84;101563.03;5095186;28;20045;-83
2023/07/14 03:19:01;;;;;;;13.75;12.50;;;;;;;16.12;94.13;101560.81;5094982;28;20111;-83
2023/07/14 03:21:26;;;;;;;12.65;11.45;;;;;;;16.16;94.14;101554.22;5077214;28;20039;-83
2023/07/14 03:23:52;;;;;;;13.98;12.77;;;;;;;16.09;94.53;101552.97;5091698;28;20387;-84
2023/07/14 03:26:19;;;;;;;12.27;11.00;;;;;;;16.19;93.87;101553.13;5108389;28;20019;-84
2023/07/14 03:28:45;;;;;;;12.85;11.55;;;;;;;16.14;93.58;101548.09;5095283;28;20027;-84
2023/07/14 03:31:13;;;;;;;11.73;10.73;;;;;;;16.12;94.62;101548.22;5073438;28;20024;-83
2023/07/14 03:33:41;;;;;;;12.15;11.05;;;;;;;16.27;93.90;101553.41;5073881;28;20055;-83
2023/07/14 03:36:13;;;;;;;12.88;11.57;;;;;;;16.20;95.23;101557.53;5076994;28;20028;-84
2023/07/14 03:38:46;;;;;;;10.95;9.95;;;;;;;16.29;93.89;101548.75;5092118;28;20490;-83
2023/07/14 03:41:14;;;;;;;14.23;10.65;;;;;;;16.17;93.09;101552.38;5095051;28;20032;-84
2023/07/14 03:43:41;;;;;;;12.82;10.95;;;;;;;16.13;92.98;101539.19;5095155;28;20515;-83
2023/07/14 03:46:07;;;;;;;14.35;10.15;;;;;;;16.13;92.75;101533.84;5095277;28;20501;-84
2023/07/14 03:48:33;;;;;;;12.95;9.75;;;;;;;16.15;92.58;101519.44;5073283;28;20024;-84
2023/07/14 03:51:03;;;;;;;9.82;8.98;;;;;;;16.17;92.75;101534.44;5088670;28;20028;-83
2023/07/14 03:53:30;;;;;;;10.70;9.70;;;;;;;16.10;92.63;101528.69;5076574;28;20032;-84
2023/07/14 03:55:57;;;;;;;11.38;9.90;;;;;;;16.12;92.27;101520.53;5075294;28;20485;-83
2023/07/14 03:58:23;;;;;;;11.07;9.93;;;;;;;16.15;92.11;101532.84;5067248;28;20020;-83
2023/07/14 04:00:48;;;;;;;10.95;9.77;;;;;;;16.21;93.18;101535.94;5094366;28;20038;-83
2023/07/14 04:03:13;;;;;;;10.15;8.98;;;;;;;16.13;93.50;101523.09;5075741;28;20031;-83
2023/07/14 04:05:44;;;;;;;10.43;9.20;;;;;;;16.11;93.88;101518.81;5091597;28;20031;-83
2023/07/14 04:08:10;;;;;;;10.45;9.48;;;;;;;16.24;92.28;101534.88;5076158;28;20120;-83
2023/07/14 04:10:35;;;;;;;10.65;9.65;;;;;;;16.17;91.69;101525.53;5075864;28;20095;-83
2023/07/14 04:13:00;;;;;;;12.07;9.48;;;;;;;16.15;91.64;101536.41;5094178;28;20491;-84
2023/07/14 04:15:28;;;;;;;11.55;9.95;;;;;;;16.12;91.85;101529.44;5110344;28;20110;-83
2023/07/14 04:17:53;;;;;;;10.10;9.15;;;;;;;16.15;92.30;101535.53;5096578;28;20050;-84
2023/07/14 04:20:22;;;;;;;11.75;8.82;;;;;;;16.16;92.62;101529.22;5098343;28;20031;-83
2023/07/14 04:22:47;;;;;;;10.60;9.20;;;;;;;16.00;92.42;101505.34;5076142;28;20057;-83
2023/07/14 04:25:13;;;;;;;12.00;8.63;;;;;;;16.07;92.85;101518.19;5075352;28;20112;-83
2023/07/14 04:27:38;;;;;;;9.90;8.73;;;;;;;16.08;92.06;101527.09;5076078;28;20460;-83
2023/07/14 04:30:08;;;;;;;8.63;7.75;;;;;;;16.03;92.42;101526.56;5076017;28;20036;-83
2023/07/14 04:32:34;;;;;;;10.40;9.25;;;;;;;16.11;91.76;101530.41;5112323;28;20092;-83
2023/07/14 04:35:01;;;;;;;17.02;8.63;;;;;;;16.07;92.07;101525.41;5081306;28;20472;-83
2023/07/14 04:37:26;;;;;;;9.68;8.68;;;;;;;16.11;91.90;101514.28;5094176;28;20076;-83
2023/07/14 04:39:54;;;;;;;9.50;8.48;;;;;;;15.99;92.17;101512.53;5106930;28;20020;-83
2023/07/14 04:42:20;;;;;;;11.00;8.65;;;;;;;16.03;91.62;101521.22;5093762;28;20036;-83
2023/07/14 04:44:45;;;;;;;11.68;9.05;;;;;;;15.77;92.25;101491.00;5093666;28;20149;-83
2023/07/14 04:47:10;;;;;;;8.88;7.97;;;;;;;15.93;92.02;101526.41;5093012;28;20036;-83
2023/07/14 04:49:40;;;;;;;11.60;9.07;;;;;;;15.82;92.49;101515.63;5074270;28;20028;-83
2023/07/14 04:52:06;;;;;;;10.60;8.80;;;;;;;15.83;92.76;101522.72;5074322;28;20024;-83
2023/07/14 04:54:35;;;;;;;11.52;8.45;;;;;;;15.87;92.28;101532.25;5072688;28;20042;-83
2023/07/14 04:57:03;;;;;;;8.97;8.23;;;;;;;15.87;92.10;101530.41;5060797;28;20051;-83
2023/07/14 04:59:28;;;;;;;11.55;9.07;;;;;;;15.87;93.00;101535.78;5090653;28;20305;-83
2023/07/14 05:01:54;;;;;;;9.75;8.45;;;;;;;15.86;92.54;101538.59;5074922;28;20036;-83
2023/07/14 05:04:19;;;;;;;9.65;8.65;;;;;;;15.88;92.61;101532.16;5073934;28;20020;-83
2023/07/14 05:06:47;;;;;;;10.18;9.05;;;;;;;15.89;92.36;101524.94;5106718;28;20016;-83
2023/07/14 05:09:15;;;;;;;10.68;9.23;;;;;;;15.89;93.48;101516.91;5091412;28;20089;-84
2023/07/14 05:11:43;;;;;;;11.27;8.45;;;;;;;15.98;92.81;101524.25;5074806;28;20030;-83
2023/07/14 05:14:08;;;;;;;11.48;8.88;;;;;;;15.96;91.92;101519.97;5091512;28;20024;-83
2023/07/14 05:16:34;;;;;;;13.80;8.45;;;;;;;16.07;92.23;101525.41;5091559;28;20020;-83
2023/07/14 05:18:59;;;;;;;13.40;8.93;;;;;;;16.08;90.88;101514.53;5074878;28;20081;-83
2023/07/14 05:21:25;;;;;;;9.55;8.65;;;;;;;16.08;91.10;101514.53;5093121;28;20024;-83
2023/07/14 05:23:50;;;;;;;9.57;8.05;;;;;;;16.21;90.64;101517.16;5090787;28;20016;-83
2023/07/14 05:26:16;;;;;;;11.57;8.82;;;;;;;16.25;90.08;101521.31;5075134;28;20016;-83
2023/07/14 05:28:43;;;;;;;9.38;8.27;;;;;;;16.12;89.64;101510.66;5108227;28;20487;-83
2023/07/14 05:31:12;;;;;;;13.40;8.50;;;;;;;16.17;89.05;101520.19;5107483;28;20487;-83
2023/07/14 05:33:38;;;;;;;10.35;8.80;;;;;;;16.22;89.67;101513.50;5091401;28;20123;-83
2023/07/14 05:36:06;;;;;;;10.88;8.45;;;;;;;16.06;89.78;101505.75;5075700;28;20478;-83
2023/07/14 05:38:31;;;;;;;9.70;8.38;;;;;;;16.21;89.14;101502.88;5099003;28;20527;-82
2023/07/14 05:41:03;;;;;;;14.82;9.77;;;;;;;16.28;87.97;101517.53;5090654;28;20178;-83
2023/07/14 05:43:30;;;;;;;12.60;9.35;;;;;;;16.20;87.60;101514.56;5092308;28;20080;-83
2023/07/14 05:45:56;;;;;;;11.65;8.48;;;;;;;16.18;88.28;101508.47;5091336;28;20023;-82
2023/07/14 05:48:24;;;;;;;8.60;7.78;;;;;;;16.30;88.91;101499.50;5092098;28;20035;-83
2023/07/14 05:50:49;;;;;;;11.98;8.73;;;;;;;16.49;88.64;101507.81;5092321;28;20038;-82
2023/07/14 05:53:20;;;;;;;10.63;7.80;;;;;;;16.61;86.84;101506.00;5074268;28;20107;-82
2023/07/14 05:55:47;;;;;;;9.38;8.23;;;;;;;16.75;86.09;101524.59;5091664;28;20032;-83
2023/07/14 05:58:15;;;;;;;12.60;8.57;;;;;;;16.73;85.46;101515.78;5070079;28;20035;-82
2023/07/14 06:00:42;;;;;;;11.93;8.57;;;;;;;16.70;85.01;101516.03;5085398;28;20020;-82
2023/07/14 06:03:16;;;;;;;13.02;8.10;;;;;;;16.73;86.02;101517.63;5092432;28;20028;-83
2023/07/14 06:05:45;;;;;;;9.65;8.63;;;;;;;16.81;87.08;101517.91;5092346;28;20046;-83
2023/07/14 06:08:11;;;;;;;12.05;8.50;;;;;;;16.77;84.91;101513.78;5073715;28;20042;-83
2023/07/14 06:10:36;;;;;;;9.43;8.23;;;;;;;16.77;85.20;101506.56;5073184;28;20701;-82
2023/07/14 06:13:04;;;;;;;10.32;8.10;;;;;;;16.69;85.55;101513.47;5090700;28;20755;-82
2023/07/14 06:15:30;;;;;;;13.00;8.30;;;;;;;16.82;84.85;101529.50;5093188;28;20019;-81
2023/07/14 06:17:56;;;;;;;10.82;8.18;;;;;;;16.88;87.15;101526.34;5092535;28;20035;-81
2023/07/14 06:20:23;;;;;;;10.63;7.95;;;;;;;16.86;86.96;101512.19;5085494;28;20022;-81
2023/07/14 06:22:49;;;;;;;12.23;8.35;;;;;;;16.92;85.41;101514.41;5088431;28;20479;-82
2023/07/14 06:25:15;;;;;;;11.02;7.85;;;;;;;16.91;85.51;101518.03;5072101;28;20065;-83
2023/07/14 06:27:41;;;;;;;12.10;8.07;;;;;;;16.87;85.52;101501.31;5074649;28;20020;-83
2023/07/14 06:30:07;;;;;;;10.80;8.68;;;;;;;16.89;86.25;101507.44;5073218;28;20024;-83
2023/07/14 06:32:32;;;;;;;10.95;7.75;;;;;;;16.91;84.23;101513.53;5081873;28;20016;-82
2023/07/14 06:34:57;;;;;;;10.65;7.65;;;;;;;16.94;83.41;101517.78;5113172;28;20035;-83
2023/07/14 06:37:25;;;;;;;10.50;8.70;;;;;;;17.00;84.31;101523.56;5092273;28;20039;-82
2023/07/14 06:39:51;;;;;;;12.77;8.07;;;;;;;16.89;84.61;101485.09;5074492;28;20023;-82
2023/07/14 06:42:16;;;;;;;10.20;8.75;;;;;;;17.11;82.56;101519.16;5074957;28;20466;-82
2023/07/14 06:44:42;;;;;;;12.45;7.38;;;;;;;17.17;83.09;101519.50;5075945;28;20034;-82
2023/07/14 06:47:08;;;;;;;9.88;7.75;;;;;;;17.22;82.32;101517.31;5074506;28;20520;-82
2023/07/14 06:49:33;;;;;;;7.95;6.65;;;;;;;17.33;80.22;101510.22;5092218;28;20119;-82
2023/07/14 06:51:59;;;;;;;11.07;7.45;;;;;;;17.54;81.32;101513.00;5054652;28;20379;-82
2023/07/14 06:54:24;;;;;;;11.38;7.32;;;;;;;17.67;80.18;101516.38;5085931;28;20028;-82
2023/07/14 06:56:49;;;;;;;7.30;6.50;;;;;;;17.88;80.45;101493.13;5091287;28;20031;-82
2023/07/14 06:59:15;;;;;;;9.75;6.82;;;;;;;18.00;78.50;101502.00;5072636;28;20114;-83
2023/07/14 07:01:41;;;;;;;7.72;6.13;;;;;;;18.06;77.97;101490.72;5083211;28;20036;-82
2023/07/14 07:04:06;;;;;;;9.10;6.30;;;;;;;18.08;76.64;101507.56;5066020;28;20017;-82
2023/07/14 07:06:32;;;;;;;7.72;5.90;;;;;;;17.98;75.54;101493.19;5087116;28;20017;-82
2023/07/14 07:08:57;;;;;;;9.10;5.97;;;;;;;17.97;77.71;101491.50;5090440;28;20473;-81
2023/07/14 07:11:23;;;;;;;9.35;6.07;;;;;;;17.90;75.24;101492.97;5072558;28;20032;-81
2023/07/14 07:13:51;;;;;;;8.20;5.22;;;;;;;17.85;73.58;101489.81;5091377;28;20020;-81
2023/07/14 07:16:16;;;;;;;7.13;5.32;;;;;;;17.70;73.69;101486.53;5086601;28;20024;-82
2023/07/14 07:18:44;;;;;;;7.97;6.57;;;;;;;17.84;74.03;101502.41;5104529;28;20405;-81
2023/07/14 07:21:12;;;;;;;7.10;5.72;;;;;;;17.77;74.62;101487.75;5109940;28;20027;-82
2023/07/14 07:23:38;;;;;;;8.90;5.88;;;;;;;17.81;74.73;101482.97;5097317;28;20023;-81
2023/07/14 07:26:03;;;;;;;6.95;5.88;;;;;;;17.83;74.77;101481.88;5077007;28;20502;-82
2023/07/14 07:28:29;;;;;;;9.98;6.22;;;;;;;17.82;74.05;101472.06;5096358;28;20047;-81
2023/07/14 07:30:56;;;;;;;8.65;5.78;;;;;;;17.96;74.95;101486.22;5096324;28;20436;-82
2023/07/14 07:33:28;;;;;;;9.07;6.07;;;;;;;17.89;73.13;101486.75;5092096;28;20121;-82
2023/07/14 07:35:54;;;;;;;8.32;5.45;;;;;;;17.87;73.83;101480.63;5094802;28;20028;-81
2023/07/14 07:38:22;;;;;;;6.43;5.63;;;;;;;17.84;73.18;101485.41;5075943;28;20047;-81
2023/07/14 07:40:48;;;;;;;7.45;5.53;;;;;;;17.92;74.93;101480.25;5095127;28;20031;-81
2023/07/14 07:43:13;;;;;;;6.93;5.53;;;;;;;17.93;71.95;101474.72;5111167;28;20056;-81
2023/07/14 07:45:45;;;;;;;8.23;5.35;;;;;;;18.01;71.66;101481.31;5095319;28;20082;-81
2023/07/14 07:48:11;;;;;;;10.80;4.80;;;;;;;18.08;71.96;101482.50;5095751;28;20024;-82
2023/07/14 07:50:41;;;;;;;10.10;5.30;;;;;;;18.12;72.88;101473.19;5095245;28;20355;-82
2023/07/14 07:53:09;;;;;;;8.77;5.25;;;;;;;18.11;71.06;101466.06;5077606;28;20030;-81
2023/07/14 07:55:34;;;;;;;9.48;5.57;;;;;;;18.25;70.30;101456.81;5095533;28;20376;-82
2023/07/14 07:58:00;;;;;;;5.82;5.13;;;;;;;18.43;71.14;101473.25;5077042;28;20085;-82
2023/07/14 08:00:31;;;;;;;7.93;5.03;;;;;;;18.43;70.94;101473.25;5094854;28;20118;-82
2023/07/14 08:02:59;;;;;;;9.98;5.88;;;;;;;18.44;70.54;101470.41;5095430;28;20031;-82
2023/07/14 08:05:25;;;;;;;6.50;4.85;;;;;;;18.43;69.36;101471.41;5095158;28;20085;-82
2023/07/14 08:07:50;;;;;;;8.50;5.03;;;;;;;18.37;68.40;101455.78;5111045;28;20020;-82
2023/07/14 08:10:17;;;;;;;6.88;4.70;;;;;;;18.41;69.27;101454.50;5095540;28;20446;-82
2023/07/14 08:12:45;;;;;;;5.38;4.85;;;;;;;18.29;68.65;101455.56;5111426;28;20024;-81
2023/07/14 08:15:13;;;;;;;7.53;4.90;;;;;;;18.29;68.96;101463.66;5076940;28;20028;-82
2023/07/14 08:17:54;;;;;;;6.03;5.13;;;;;;;18.42;69.59;101469.69;5076992;28;20047;-82
2023/07/14 08:20:19;;;;;;;7.78;4.70;;;;;;;18.47;69.36;101448.63;5077221;28;20106;-82
2023/07/14 08:22:47;;;;;;;7.22;5.20;;;;;;;18.61;69.75;101460.84;5094956;28;20463;-81
2023/07/14 08:25:12;;;;;;;7.10;4.95;;;;;;;18.72;69.65;101457.22;5110744;28;20031;-83
2023/07/14 08:27:44;;;;;;;7.55;4.72;;;;;;;18.71;68.98;101464.47;5111132;28;20020;-81
2023/07/14 08:30:14;;;;;;;6.65;4.82;;;;;;;18.70;67.99;101451.97;5089799;28;20081;-81
2023/07/14 08:32:42;;;;;;;5.95;4.22;;;;;;;18.65;66.36;101445.28;5076702;28;20052;-81
2023/07/14 08:35:08;;;;;;;6.90;4.95;;;;;;;18.81;66.44;101456.44;5076727;28;20187;-81
2023/07/14 08:37:34;;;;;;;9.43;5.10;;;;;;;18.76;65.35;101456.00;5094701;28;20081;-82
2023/07/14 08:39:59;;;;;;;5.78;4.50;;;;;;;18.97;65.56;101458.63;5076204;28;20032;-81
2023/07/14 08:42:39;;;;;;;7.25;4.50;;;;;;;18.95;64.94;101430.97;5094725;28;20090;-85
2023/07/14 08:45:31;;;;;;;10.65;4.55;;;;;;;19.21;64.35;101458.31;5076310;28;20386;-80
2023/07/14 08:48:19;;;;;;;9.40;4.70;;;;;;;19.43;64.85;101452.66;5094163;28;20016;-80
2023/07/14 08:50:49;;;;;;;5.47;3.63;;;;;;;19.69;64.13;101444.91;5076136;28;20020;-80
2023/07/14 08:53:21;;;;;;;6.13;4.00;;;;;;;20.00;62.36;101457.41;5093822;28;20382;-79
2023/07/14 08:55:47;;;;;;;7.35;4.03;;;;;;;20.25;63.08;101446.00;5076043;28;20114;-81
2023/07/14 08:58:19;;;;;;;6.85;4.30;;;;;;;20.32;62.54;101440.88;5093802;28;20115;-80
2023/07/14 09:00:52;;;;;;;6.15;4.10;;;;;;;20.53;61.95;101451.50;5075966;28;20027;-80
2023/07/14 09:04:00;;;;;;;6.22;4.07;;;;;;;20.76;61.04;101442.03;5075792;28;20105;-79
2023/07/14 09:06:35;;;;;;;5.53;3.87;;;;;;;20.50;59.22;101446.34;4956905;28;20522;-80
2023/07/14 09:09:02;;;;;;;6.38;4.57;;;;;;;20.66;58.90;101443.09;4955862;28;20022;-80
2023/07/14 09:12:06;;;;;;;7.18;3.88;;;;;;;20.82;60.67;101441.47;5029395;28;20036;-80
2023/07/14 09:14:53;;;;;;;6.38;4.40;;;;;;;21.07;60.08;101441.75;5058692;28;20092;-83
2023/07/14 09:17:36;;;;;;;4.85;4.35;;;;;;;21.31;58.10;101423.09;5109442;28;20022;-81
2023/07/14 09:20:51;;;;;;;7.22;4.43;;;;;;;21.67;58.67;101423.13;5109181;28;20364;-81
2023/07/14 09:23:38;;;;;;;4.07;3.55;;;;;;;21.61;58.99;101420.19;5048242;28;20422;-81
2023/07/14 09:26:04;;;;;;;9.07;4.18;;;;;;;21.80;57.60;101428.19;5075264;28;20061;-76
2023/07/14 09:28:48;;;;;;;7.28;3.63;;;;;;;21.90;57.03;101420.81;5108341;28;20502;-77
2023/07/14 09:31:31;;;;;;;4.15;3.50;;;;;;;22.06;58.20;101425.50;5075156;28;20126;-77
2023/07/14 09:33:59;;;;;;;6.78;3.63;;;;;;;22.26;56.26;101417.19;5093048;28;20032;-76
2023/07/14 09:36:31;;;;;;;4.95;3.80;;;;;;;22.26;54.76;101415.34;5108919;28;20490;-75
2023/07/14 09:39:07;;;;;;;5.70;3.63;;;;;;;22.32;56.65;101408.44;5092771;28;20470;-76
2023/07/14 09:41:35;;;;;;;5.15;3.63;;;;;;;22.37;54.96;101412.38;5074087;28;20118;-76
2023/07/14 09:44:01;;;;;;;5.20;3.80;;;;;;;22.41;54.30;101408.34;5092788;28;20104;-75
2023/07/14 09:46:44;;;;;;;6.47;3.95;;;;;;;22.63;55.58;101395.22;5093272;28;20032;-76
2023/07/14 09:49:20;;;;;;;5.10;3.60;;;;;;;22.82;53.50;101394.94;5092810;28;20085;-76
2023/07/14 09:52:08;;;;;;;4.13;3.45;;;;;;;23.11;55.19;101394.56;5092704;28;20020;-76
2023/07/14 09:54:34;;;;;;;5.97;3.40;;;;;;;22.95;53.30;101382.84;5070883;28;20123;-76
2023/07/14 09:57:02;;;;;;;5.10;3.40;;;;;;;22.77;55.40;101383.78;5071497;28;20028;-76
2023/07/14 09:59:28;;;;;;;6.65;4.07;;;;;;;22.64;53.04;101395.03;5089633;28;20028;-78
2023/07/14 10:01:58;;;;;;;5.28;3.47;;;;;;;22.63;55.04;101384.38;5075413;28;20024;-77
2023/07/14 10:04:32;;;;;;;13.55;3.53;;;;;;;22.54;54.12;101378.06;5090995;28;20024;-78
2023/07/14 10:07:29;;;;;;;5.63;3.25;;;;;;;22.50;54.74;101374.00;5073005;28;20029;-77
2023/07/14 10:09:59;;;;;;;7.20;3.45;;;;;;;22.46;55.73;101375.31;5072645;28;20028;-77
2023/07/14 10:12:34;;;;;;;8.98;3.90;;;;;;;22.47;54.65;101368.03;5055411;28;20028;-77
2023/07/14 10:15:00;;;;;;;5.55;2.88;;;;;;;22.19;53.02;101346.53;5055100;28;20043;-77
2023/07/14 10:17:27;;;;;;;21.73;4.75;;;;;;;22.36;54.30;101359.16;5073019;28;20449;-76
2023/07/14 10:19:56;;;;;;;4.93;3.33;;;;;;;22.34;53.85;101350.34;5085327;28;20036;-76
2023/07/14 10:22:31;;;;;;;4.45;3.60;;;;;;;22.72;54.30;101353.56;5075345;28;20020;-76
2023/07/14 10:25:01;;;;;;;5.63;3.47;;;;;;;22.88;53.11;101350.94;5094676;28;20367;-75
2023/07/14 10:27:29;;;;;;;4.97;3.15;;;;;;;23.22;52.52;101343.72;5077191;28;20024;-75
2023/07/14 10:30:00;;;;;;;6.88;3.38;;;;;;;23.37;51.74;101341.19;5075455;28;20031;-75
2023/07/14 10:32:28;;;;;;;5.68;3.47;;;;;;;23.47;51.89;101341.88;5094337;28;20032;-75
2023/07/14 10:35:23;;;;;;;5.40;3.17;;;;;;;23.68;51.45;101334.09;5093714;28;20089;-75
2023/07/14 10:38:16;;;;;;;3.92;2.95;;;;;;;23.44;50.31;101317.78;5072582;28;20038;-75
2023/07/14 10:41:02;;;;;;;4.88;2.85;;;;;;;23.86;50.37;101323.06;5074199;28;20040;-75
2023/07/14 10:43:33;;;;;;;5.68;3.38;;;;;;;24.05;48.34;101321.81;5090779;28;20582;-75
2023/07/14 10:46:06;;;;;;;7.57;2.88;;;;;;;24.17;48.08;101312.25;5092123;28;20024;-75
2023/07/14 10:48:40;;;;;;;4.60;3.08;;;;;;;23.96;48.12;101307.41;5092517;28;20367;-75
2023/07/14 10:51:18;;;;;;;4.50;2.83;;;;;;;23.78;48.78;101301.31;5073963;28;20038;-75
2023/07/14 10:54:01;;;;;;;5.38;2.65;;;;;;;23.97;49.83;101300.97;5093157;28;20042;-74
2023/07/14 10:56:45;;;;;;;4.20;2.97;;;;;;;24.02;49.41;101305.84;5096237;28;20055;-74
2023/07/14 10:59:24;;;;;;;6.30;2.90;;;;;;;23.61;48.49;101305.88;5095277;28;20024;-74
2023/07/14 11:02:10;;;;;;;5.35;3.03;;;;;;;23.47;50.12;101298.44;5094751;28;20072;-75
2023/07/14 11:04:46;;;;;;;5.85;3.60;;;;;;;23.25;49.91;101294.53;5081416;28;20081;-74
2023/07/14 11:07:33;;;;;;;4.68;3.10;;;;;;;23.54;50.16;101285.88;5078026;28;20391;-75
2023/07/14 11:10:03;;;;;;;5.75;3.08;;;;;;;23.60;49.27;101287.91;5074996;28;20047;-74
2023/07/14 11:12:50;;;;;;;4.30;2.92;;;;;;;23.73;49.98;101282.81;5096121;28;20125;-74
2023/07/14 11:15:25;;;;;;;6.13;3.03;;;;;;;23.81;49.45;101268.38;5095285;28;20450;-76
2023/07/14 11:18:07;;;;;;;5.50;3.35;;;;;;;23.74;48.55;101248.38;5087642;28;20163;-76
2023/07/14 11:21:01;;;;;;;5.60;2.90;;;;;;;23.98;50.70;101253.72;5081309;28;20031;-92
2023/07/14 11:23:56;;;;;;;7.28;3.10;;;;;;;23.85;48.42;101249.84;5059024;28;20082;-88
2023/07/14 11:26:34;;;;;;;6.65;3.40;;;;;;;23.82;48.82;101252.91;5075734;28;20025;-89
2023/07/14 11:29:05;;;;;;;5.78;3.63;;;;;;;24.13;48.82;101253.84;5112215;28;20123;-89
2023/07/14 11:31:36;;;;;;;4.80;2.70;;;;;;;24.42;48.06;101263.25;5096495;28;20536;-89
2023/07/14 11:34:14;;;;;;;4.82;3.03;;;;;;;24.47;47.06;101248.13;5078735;28;20047;-90